createdAt,value
2019-05-06T00:00:58.214Z,81.80
2019-05-06T00:03:18.871Z,82.10
2019-05-06T00:05:48.541Z,81.80
2019-05-06T00:08:19.964Z,82.20
2019-05-06T00:10:49.807Z,82.30
2019-05-06T00:13:19.575Z,82.60
2019-05-06T00:15:49.940Z,82.70
2019-05-06T00:18:20.070Z,83.00
2019-05-06T00:20:50.243Z,82.80
2019-05-06T00:23:35.362Z,82.80
2019-05-06T00:26:34.118Z,82.90
2019-05-06T00:29:08.048Z,82.90
2019-05-06T00:31:37.985Z,82.80
2019-05-06T00:34:07.737Z,82.30
2019-05-06T00:36:37.576Z,82.40
2019-05-06T00:39:34.572Z,82.30
2019-05-06T00:42:16.243Z,81.50
2019-05-06T00:44:45.836Z,82.00
2019-05-06T00:47:15.852Z,81.70
2019-05-06T00:49:46.017Z,81.30
2019-05-06T00:52:15.648Z,81.60
2019-05-06T00:54:45.558Z,81.70
2019-05-06T00:57:17.631Z,82.50
2019-05-06T00:59:49.540Z,81.70
2019-05-06T01:02:20.297Z,82.50
2019-05-06T01:04:51.452Z,83.30
2019-05-06T01:07:23.258Z,82.70
2019-05-06T01:09:54.152Z,82.90
2019-05-06T01:12:26.262Z,84.00
2019-05-06T01:14:57.098Z,84.30
2019-05-06T01:17:27.099Z,84.30
2019-05-06T01:19:56.936Z,84.40
2019-05-06T01:22:26.850Z,84.10
2019-05-06T01:25:00.020Z,84.40
2019-05-06T01:27:30.026Z,84.70
2019-05-06T01:30:01.417Z,84.70
2019-05-06T01:32:34.442Z,84.60
2019-05-06T01:35:04.734Z,84.90
2019-05-06T01:37:35.148Z,85.60
2019-05-06T01:40:24.181Z,85.80
2019-05-06T01:43:04.993Z,85.90
2019-05-06T01:45:34.991Z,86.10
2019-05-06T01:48:05.400Z,86.00
2019-05-06T01:50:35.358Z,86.00
2019-05-06T01:53:06.440Z,86.20
2019-05-06T01:55:38.404Z,86.50
2019-05-06T01:58:08.613Z,86.70
2019-05-06T02:00:41.146Z,86.60
2019-05-06T02:03:24.104Z,86.60
2019-05-06T02:28:23.597Z,85.20
2019-05-06T02:31:25.720Z,84.90
2019-05-06T02:34:05.097Z,85.20
2019-05-06T02:36:46.515Z,85.10
2019-05-06T02:39:16.138Z,84.50
2019-05-06T02:41:46.014Z,85.30
2019-05-06T02:44:15.620Z,84.70
2019-05-06T02:46:47.695Z,84.50
2019-05-06T02:49:26.564Z,84.50
2019-05-06T02:51:56.343Z,84.70
2019-05-06T02:54:25.983Z,85.00
2019-05-06T02:56:55.852Z,85.30
2019-05-06T02:59:25.615Z,85.10
2019-05-06T03:01:55.269Z,85.00
2019-05-06T03:04:25.567Z,85.00
2019-05-06T03:06:55.561Z,84.80
2019-05-06T03:09:25.337Z,84.80
2019-05-06T03:11:55.183Z,84.20
2019-05-06T03:14:24.735Z,84.20
2019-05-06T03:16:54.290Z,83.90
2019-05-06T03:19:24.831Z,83.40
2019-05-06T03:22:06.365Z,83.00
2019-05-06T03:25:06.472Z,82.90
2019-05-06T03:27:33.037Z,82.20
2019-05-06T03:30:04.063Z,81.70
2019-05-06T03:32:38.270Z,81.50
2019-05-06T03:35:25.755Z,81.80
2019-05-06T03:37:36.967Z,81.90
2019-05-06T03:40:06.952Z,82.10
2019-05-06T03:42:36.492Z,82.00
2019-05-06T03:45:15.238Z,82.10
2019-05-06T03:47:54.330Z,82.20
2019-05-06T03:50:24.305Z,82.20
2019-05-06T03:52:56.533Z,82.20
2019-05-06T03:55:27.040Z,81.90
2019-05-06T03:57:57.072Z,82.00
2019-05-06T04:00:26.779Z,82.50
2019-05-06T04:02:56.424Z,82.00
2019-05-06T04:05:26.184Z,82.20
2019-05-06T04:07:55.792Z,82.60
2019-05-06T04:10:25.443Z,82.30
2019-05-06T04:12:55.713Z,82.40
2019-05-06T04:15:27.044Z,82.60
2019-05-06T04:18:03.846Z,82.60
2019-05-06T04:20:48.022Z,82.40
2019-05-06T04:23:26.038Z,83.20
2019-05-06T04:26:03.816Z,83.30
2019-05-06T04:28:34.908Z,83.10
2019-05-06T04:31:05.813Z,83.00
2019-05-06T04:33:36.008Z,83.00
2019-05-06T04:36:05.702Z,82.90
2019-05-06T04:38:35.225Z,83.40
2019-05-06T04:41:05.178Z,82.80
2019-05-06T04:43:35.196Z,83.00
2019-05-06T04:46:04.889Z,83.00
2019-05-06T04:48:34.555Z,82.80
2019-05-06T04:51:04.285Z,83.20
2019-05-06T04:53:34.269Z,83.20
2019-05-06T04:56:04.391Z,82.20
2019-05-06T04:58:34.333Z,82.90
2019-05-06T05:01:04.360Z,83.10
2019-05-06T05:03:34.804Z,82.80
2019-05-06T05:06:05.767Z,82.90
2019-05-06T05:08:38.671Z,82.60
2019-05-06T05:11:33.112Z,82.80
2019-05-06T05:14:29.852Z,82.20
2019-05-06T05:17:36.499Z,82.10
2019-05-06T05:20:07.179Z,81.80
2019-05-06T05:22:36.855Z,81.80
2019-05-06T05:25:06.710Z,81.40
2019-05-06T05:27:36.444Z,81.60
2019-05-06T05:30:07.537Z,81.40
2019-05-06T05:32:37.206Z,81.30
2019-05-06T05:35:06.978Z,81.10
2019-05-06T05:37:36.554Z,80.60
2019-05-06T05:40:06.915Z,80.10
2019-05-06T05:43:11.726Z,79.90
2019-05-06T05:45:42.437Z,80.20
2019-05-06T05:48:23.403Z,80.40
2019-05-06T05:50:53.156Z,80.20
2019-05-06T05:53:22.755Z,80.00
2019-05-06T05:55:53.431Z,80.00
2019-05-06T05:58:24.811Z,80.50
2019-05-06T06:00:54.723Z,79.40
2019-05-06T06:03:24.625Z,79.20
2019-05-06T06:05:54.374Z,78.00
2019-05-06T06:08:24.810Z,77.80
2019-05-06T06:11:01.422Z,77.70
2019-05-06T06:13:32.024Z,76.90
2019-05-06T06:16:32.963Z,77.40
2019-05-06T06:19:26.220Z,77.50
2019-05-06T06:22:00.015Z,76.40
2019-05-06T06:24:32.318Z,76.10
2019-05-06T06:27:03.077Z,75.40
2019-05-06T06:29:33.336Z,75.90
2019-05-06T06:32:22.997Z,77.00
2019-05-06T06:35:22.877Z,76.80
2019-05-06T06:38:00.318Z,76.20
2019-05-06T06:40:32.889Z,74.00
2019-05-06T06:43:09.507Z,72.30
2019-05-06T06:45:39.524Z,69.80
2019-05-06T06:48:09.071Z,68.60
2019-05-06T06:50:39.084Z,67.40
2019-05-06T06:53:08.701Z,65.90
2019-05-06T06:55:39.830Z,66.00
2019-05-06T06:58:34.575Z,65.60
2019-05-06T07:01:23.550Z,66.70
2019-05-06T07:04:13.514Z,66.50
2019-05-06T07:06:46.803Z,64.70
2019-05-06T07:09:16.411Z,64.30
2019-05-06T07:11:46.103Z,64.50
2019-05-06T07:14:15.728Z,65.60
2019-05-06T07:16:45.335Z,64.00
2019-05-06T07:19:18.091Z,65.60
2019-05-06T07:21:52.305Z,66.40
2019-05-06T07:24:22.820Z,65.70
2019-05-06T07:26:56.988Z,62.90
2019-05-06T07:29:26.927Z,62.10
2019-05-06T07:31:56.676Z,62.70
2019-05-06T07:34:26.319Z,62.30
2019-05-06T07:36:56.230Z,59.80
2019-05-06T07:39:25.747Z,60.00
2019-05-06T07:41:58.000Z,56.80
2019-05-06T07:44:53.050Z,56.80
2019-05-06T07:47:43.202Z,57.10
2019-05-06T07:50:13.198Z,55.70
2019-05-06T07:53:02.374Z,55.30
2019-05-06T07:55:32.830Z,51.90
2019-05-06T07:58:03.195Z,54.70
2019-05-06T08:00:33.319Z,51.10
2019-05-06T08:03:03.283Z,53.20
2019-05-06T08:05:33.093Z,52.60
2019-05-06T08:08:03.781Z,51.00
2019-05-06T08:10:33.620Z,47.10
2019-05-06T08:13:03.404Z,47.10
2019-05-06T08:15:34.492Z,44.90
2019-05-06T08:18:04.268Z,40.10
2019-05-06T08:20:37.121Z,36.70
2019-05-06T08:23:13.311Z,34.20
2019-05-06T08:25:45.701Z,28.90
2019-05-06T08:28:15.547Z,27.60
2019-05-06T08:30:45.377Z,26.80
2019-05-06T08:33:16.187Z,27.60
2019-05-06T08:35:45.899Z,29.30
2019-05-06T08:38:15.704Z,29.70
2019-05-06T08:40:45.808Z,29.10
2019-05-06T08:43:15.587Z,29.70
2019-05-06T08:45:45.286Z,31.20
2019-05-06T08:48:15.063Z,32.30
2019-05-06T08:51:09.094Z,34.70
2019-05-06T08:53:45.414Z,32.60
2019-05-06T08:56:18.058Z,32.60
2019-05-06T08:58:48.475Z,34.10
2019-05-06T09:01:38.194Z,33.90
2019-05-06T09:04:15.298Z,35.50
2019-05-06T09:06:43.253Z,37.20
2019-05-06T09:09:13.368Z,37.30
2019-05-06T09:11:43.369Z,37.00
2019-05-06T09:14:14.326Z,37.40
2019-05-06T09:16:44.361Z,36.80
2019-05-06T09:19:14.291Z,38.70
2019-05-06T09:21:46.345Z,39.50
2019-05-06T09:24:15.599Z,39.40
2019-05-06T09:27:04.202Z,39.40
2019-05-06T09:29:42.723Z,39.30
2019-05-06T09:32:16.458Z,38.70
2019-05-06T09:34:56.935Z,39.30
2019-05-06T09:37:26.618Z,39.90
2019-05-06T09:39:56.163Z,39.10
2019-05-06T09:42:25.820Z,39.50
2019-05-06T09:44:55.965Z,37.80
2019-05-06T09:47:47.386Z,36.40
2019-05-06T09:50:23.935Z,34.70
2019-05-06T09:52:55.312Z,31.40
2019-05-06T09:55:35.587Z,28.90
2019-05-06T09:58:12.271Z,27.40
2019-05-06T10:00:43.858Z,26.10
2019-05-06T10:03:15.343Z,24.20
2019-05-06T10:05:45.212Z,24.90
2019-05-06T10:08:15.520Z,24.00
2019-05-06T10:10:56.201Z,23.90
2019-05-06T10:13:17.986Z,24.00
2019-05-06T10:15:48.029Z,25.90
2019-05-06T10:18:22.486Z,26.80
2019-05-06T10:20:49.617Z,30.20
2019-05-06T10:23:19.649Z,30.00
2019-05-06T10:25:49.391Z,31.40
2019-05-06T10:28:42.099Z,32.90
2019-05-06T10:31:14.129Z,32.50
2019-05-06T10:34:05.949Z,34.80
2019-05-06T10:36:47.671Z,35.00
2019-05-06T10:39:19.853Z,35.80
2019-05-06T10:41:56.923Z,34.70
2019-05-06T10:44:42.847Z,34.90
2019-05-06T10:47:12.230Z,36.80
2019-05-06T10:49:42.176Z,37.10
2019-05-06T10:52:25.882Z,35.30
2019-05-06T10:54:55.580Z,34.00
2019-05-06T10:57:32.640Z,34.40
2019-05-06T11:00:01.881Z,35.40
2019-05-06T11:02:59.732Z,33.60
2019-05-06T11:05:29.647Z,34.60
2019-05-06T11:07:59.749Z,34.10
2019-05-06T11:10:38.045Z,33.40
2019-05-06T11:13:03.304Z,32.80
2019-05-06T11:15:33.081Z,33.20
2019-05-06T11:18:04.751Z,32.10
2019-05-06T11:20:34.769Z,32.50
2019-05-06T11:23:06.216Z,32.80
2019-05-06T11:25:37.752Z,33.90
2019-05-06T11:28:26.699Z,33.30
2019-05-06T11:31:24.551Z,33.60
2019-05-06T11:34:12.665Z,34.00
2019-05-06T11:37:04.530Z,35.00
2019-05-06T11:39:34.435Z,35.40
2019-05-06T11:42:23.835Z,35.50
2019-05-06T11:44:35.542Z,35.70
2019-05-06T11:47:05.703Z,35.90
2019-05-06T11:49:35.394Z,35.80
2019-05-06T11:52:05.192Z,36.30
2019-05-06T11:54:35.994Z,36.20
2019-05-06T11:57:09.270Z,36.20
2019-05-06T11:59:38.992Z,36.30
2019-05-06T12:02:12.717Z,35.80
2019-05-06T12:04:43.109Z,38.60
2019-05-06T12:07:15.836Z,37.20
2019-05-06T12:09:44.492Z,35.90
2019-05-06T12:12:15.318Z,35.70
2019-05-06T12:14:45.088Z,36.60
2019-05-06T12:17:15.077Z,36.70
2019-05-06T12:19:44.869Z,35.30
2019-05-06T12:22:14.727Z,36.20
2019-05-06T12:24:48.721Z,36.60
2019-05-06T12:27:37.561Z,37.60
2019-05-06T12:30:07.410Z,37.90
2019-05-06T12:32:43.374Z,38.50
2019-05-06T12:35:12.921Z,39.00
2019-05-06T12:37:44.316Z,38.00
2019-05-06T12:40:14.408Z,38.40
2019-05-06T12:42:48.329Z,39.10
2019-05-06T12:45:24.515Z,37.70
2019-05-06T12:48:03.127Z,39.10
2019-05-06T12:50:33.863Z,38.30
2019-05-06T12:53:04.177Z,38.30
2019-05-06T12:55:34.339Z,39.50
2019-05-06T12:58:04.156Z,39.00
2019-05-06T13:00:34.451Z,40.10
2019-05-06T13:03:04.972Z,39.20
2019-05-06T13:05:34.908Z,39.70
2019-05-06T13:08:06.658Z,39.40
2019-05-06T13:10:37.070Z,39.20
2019-05-06T13:13:08.403Z,39.70
2019-05-06T13:15:38.547Z,38.50
2019-05-06T13:18:10.135Z,39.10
2019-05-06T13:20:40.126Z,39.00
2019-05-06T13:23:21.344Z,38.60
2019-05-06T13:25:48.775Z,39.00
2019-05-06T13:28:22.251Z,38.30
2019-05-06T13:30:53.171Z,38.20
2019-05-06T13:33:54.645Z,37.50
2019-05-06T13:36:23.319Z,36.20
2019-05-06T13:39:09.077Z,36.10
2019-05-06T13:41:24.849Z,34.60
2019-05-06T13:44:07.879Z,34.40
2019-05-06T13:46:43.073Z,35.60
2019-05-06T13:49:48.593Z,38.20
2019-05-06T13:52:22.981Z,38.60
2019-05-06T13:54:53.275Z,39.10
2019-05-06T13:57:22.922Z,36.20
2019-05-06T13:59:54.087Z,36.20
2019-05-06T14:02:43.773Z,36.10
2019-05-06T14:05:14.125Z,37.50
2019-05-06T14:07:43.969Z,37.80
2019-05-06T14:10:13.883Z,38.40
2019-05-06T14:12:43.686Z,37.40
2019-05-06T14:15:14.149Z,37.60
2019-05-06T14:17:44.047Z,37.70
2019-05-06T14:20:14.826Z,36.90
2019-05-06T14:22:45.036Z,37.70
2019-05-06T14:25:43.535Z,38.10
2019-05-06T14:28:24.138Z,37.80
2019-05-06T14:31:07.199Z,37.60
2019-05-06T14:33:37.026Z,37.40
2019-05-06T14:36:07.276Z,37.50
2019-05-06T14:38:37.026Z,39.30
2019-05-06T14:41:13.966Z,38.00
2019-05-06T14:43:43.597Z,37.90
2019-05-06T14:46:13.322Z,37.70
2019-05-06T14:48:43.623Z,37.70
2019-05-06T14:51:14.512Z,37.80
2019-05-06T14:53:44.492Z,37.00
2019-05-06T14:56:29.131Z,37.00
2019-05-06T14:59:08.536Z,37.00
2019-05-06T15:01:40.223Z,37.20
2019-05-06T15:04:12.305Z,37.00
2019-05-06T15:06:42.504Z,36.90
2019-05-06T15:09:13.727Z,36.70
2019-05-06T15:11:43.697Z,38.70
2019-05-06T15:14:13.500Z,37.60
2019-05-06T15:16:43.246Z,38.30
2019-05-06T15:19:13.111Z,39.00
2019-05-06T15:21:43.097Z,39.60
2019-05-06T15:24:14.305Z,42.10
2019-05-06T15:26:47.411Z,45.00
2019-05-06T15:29:18.428Z,46.50
2019-05-06T15:32:26.649Z,47.60
2019-05-06T15:35:22.324Z,46.80
2019-05-06T15:38:18.052Z,46.50
2019-05-06T15:40:47.878Z,47.30
2019-05-06T15:43:18.513Z,47.70
2019-05-06T15:45:48.312Z,48.60
2019-05-06T15:48:18.080Z,49.40
2019-05-06T15:50:47.824Z,48.70
2019-05-06T15:53:17.501Z,48.20
2019-05-06T15:55:47.340Z,47.90
2019-05-06T15:58:17.469Z,47.60
2019-05-06T16:00:47.199Z,46.80
2019-05-06T16:03:16.900Z,46.90
2019-05-06T16:05:47.990Z,46.50
2019-05-06T16:08:17.734Z,46.60
2019-05-06T16:10:52.480Z,46.50
2019-05-06T16:13:19.030Z,47.00
2019-05-06T16:15:48.593Z,46.30
2019-05-06T16:18:18.293Z,47.20
2019-05-06T16:20:48.068Z,46.90
2019-05-06T16:23:23.450Z,47.60
2019-05-06T16:25:53.013Z,47.60
2019-05-06T16:28:22.713Z,47.30
2019-05-06T16:30:53.498Z,46.60
2019-05-06T16:33:23.360Z,47.20
2019-05-06T16:35:52.958Z,47.20
2019-05-06T16:38:23.117Z,46.80
2019-05-06T16:40:57.725Z,47.00
2019-05-06T16:43:24.302Z,47.50
2019-05-06T16:45:54.015Z,47.60
2019-05-06T16:48:23.662Z,47.40
2019-05-06T16:50:53.402Z,47.50
2019-05-06T16:53:23.137Z,45.90
2019-05-06T16:56:17.522Z,45.20
2019-05-06T16:58:52.519Z,45.10
2019-05-06T17:01:22.439Z,44.80
2019-05-06T17:04:09.823Z,44.80
2019-05-06T17:06:40.487Z,45.30
2019-05-06T17:09:18.373Z,45.80
2019-05-06T17:11:42.631Z,47.00
2019-05-06T17:14:12.442Z,47.80
2019-05-06T17:16:42.453Z,49.80
2019-05-06T17:19:12.689Z,52.20
2019-05-06T17:21:43.477Z,54.30
2019-05-06T17:24:13.248Z,56.90
2019-05-06T17:26:43.562Z,56.90
2019-05-06T17:29:32.205Z,58.60
2019-05-06T17:32:27.114Z,59.60
2019-05-06T17:34:57.846Z,60.80
2019-05-06T17:37:54.959Z,60.60
2019-05-06T17:40:24.587Z,61.70
2019-05-06T17:42:54.265Z,61.90
2019-05-06T17:45:43.033Z,62.50
2019-05-06T17:48:23.288Z,62.80
2019-05-06T17:51:09.082Z,62.50
2019-05-06T17:53:39.132Z,61.90
2019-05-06T17:56:08.781Z,62.10
2019-05-06T17:58:38.488Z,62.50
2019-05-06T18:01:09.512Z,62.20
2019-05-06T18:03:39.186Z,62.00
2019-05-06T18:06:13.678Z,62.40
2019-05-06T18:08:43.025Z,63.30
2019-05-06T18:11:12.956Z,64.00
2019-05-06T18:13:43.171Z,63.90
2019-05-06T18:16:13.296Z,64.80
2019-05-06T18:18:43.243Z,64.50
2019-05-06T18:21:13.046Z,65.00
2019-05-06T18:23:43.680Z,65.40
2019-05-06T18:26:13.556Z,66.10
2019-05-06T18:28:43.308Z,66.10
2019-05-06T18:31:13.052Z,66.70
2019-05-06T18:33:43.191Z,67.90
2019-05-06T18:36:13.113Z,68.40
2019-05-06T18:38:42.775Z,68.50
2019-05-06T18:41:12.740Z,67.00
2019-05-06T18:43:42.735Z,67.30
2019-05-06T18:46:12.573Z,67.90
2019-05-06T18:48:42.709Z,67.80
2019-05-06T18:51:16.596Z,68.50
2019-05-06T18:53:46.169Z,70.00
2019-05-06T18:56:15.811Z,69.20
2019-05-06T18:58:45.539Z,69.50
2019-05-06T19:01:15.384Z,69.20
2019-05-06T19:04:03.996Z,69.30
2019-05-06T19:06:33.746Z,69.50
2019-05-06T19:09:22.868Z,70.00
2019-05-06T19:11:54.485Z,70.00
2019-05-06T19:14:24.257Z,70.10
2019-05-06T19:16:55.199Z,70.20
2019-05-06T19:19:25.036Z,70.20
2019-05-06T19:21:54.856Z,70.30
2019-05-06T19:24:24.912Z,70.60
2019-05-06T19:26:54.549Z,70.90
2019-05-06T19:29:24.313Z,70.30
2019-05-06T19:31:54.284Z,70.70
2019-05-06T19:34:24.105Z,70.60
2019-05-06T19:36:54.148Z,70.40
2019-05-06T19:39:23.854Z,70.40
2019-05-06T19:41:53.559Z,70.40
2019-05-06T19:44:23.317Z,70.30
2019-05-06T19:46:53.324Z,70.90
2019-05-06T19:49:24.064Z,70.60
2019-05-06T19:51:53.716Z,70.80
2019-05-06T19:54:23.485Z,71.10
2019-05-06T19:56:53.126Z,71.10
2019-05-06T19:59:22.857Z,71.80
2019-05-06T20:01:52.969Z,71.50
2019-05-06T20:04:24.845Z,71.90
2019-05-06T20:07:09.471Z,71.40
2019-05-06T20:10:03.246Z,72.30
2019-05-06T20:12:58.384Z,72.20
2019-05-06T20:15:34.347Z,71.90
2019-05-06T20:18:05.167Z,73.00
2019-05-06T20:20:35.295Z,72.50
2019-05-06T20:23:05.847Z,72.70
2019-05-06T20:25:37.075Z,72.60
2019-05-06T20:28:08.319Z,72.40
2019-05-06T20:30:37.924Z,72.80
2019-05-06T20:33:07.635Z,73.20
2019-05-06T20:35:37.316Z,73.20
2019-05-06T20:38:06.889Z,73.20
2019-05-06T20:40:38.451Z,72.10
2019-05-06T20:43:17.416Z,72.30
2019-05-06T20:45:39.471Z,72.70
2019-05-06T20:48:09.053Z,73.00
2019-05-06T20:50:38.939Z,72.70
2019-05-06T20:53:08.592Z,72.80
2019-05-06T20:55:38.171Z,72.10
2019-05-06T20:58:08.326Z,71.80
2019-05-06T21:00:37.960Z,72.20
2019-05-06T21:03:08.358Z,72.20
2019-05-06T21:05:37.933Z,73.10
2019-05-06T21:08:08.786Z,72.30
2019-05-06T21:10:38.439Z,73.00
2019-05-06T21:13:08.042Z,72.60
2019-05-06T21:15:37.769Z,72.80
2019-05-06T21:18:07.541Z,73.20
2019-05-06T21:20:37.526Z,72.80
2019-05-06T21:23:08.087Z,73.20
2019-05-06T21:25:37.779Z,73.90
2019-05-06T21:28:07.448Z,73.70
2019-05-06T21:30:37.525Z,73.90
2019-05-06T21:33:07.190Z,73.90
2019-05-06T21:35:36.942Z,74.00
2019-05-06T21:38:07.481Z,74.20
2019-05-06T21:40:37.082Z,74.60
2019-05-06T21:43:07.061Z,74.50
2019-05-06T21:45:37.084Z,75.20
2019-05-06T21:48:06.789Z,74.70
2019-05-06T21:50:36.461Z,74.80
2019-05-06T21:53:06.062Z,75.10
2019-05-06T21:55:35.786Z,75.50
2019-05-06T21:58:05.780Z,75.60
2019-05-06T22:00:47.026Z,74.90
2019-05-06T22:03:16.729Z,75.70
2019-05-06T22:05:46.405Z,76.20
2019-05-06T22:08:16.323Z,76.10
2019-05-06T22:10:46.207Z,75.80
2019-05-06T22:13:15.805Z,75.70
2019-05-06T22:15:45.412Z,76.40
2019-05-06T22:18:15.198Z,76.10
2019-05-06T22:21:03.029Z,76.50
2019-05-06T22:24:12.067Z,76.50
2019-05-06T22:26:43.153Z,76.10
2019-05-06T22:29:14.614Z,76.30
2019-05-06T22:31:44.156Z,76.40
2019-05-06T22:34:15.932Z,76.30
2019-05-06T22:36:45.687Z,77.00
2019-05-06T22:39:15.213Z,76.60
2019-05-06T22:41:44.985Z,76.70
2019-05-06T22:44:17.054Z,76.60
2019-05-06T22:46:45.918Z,76.80
2019-05-06T22:49:17.208Z,76.70
2019-05-06T22:51:46.764Z,76.80
2019-05-06T22:54:16.832Z,76.70
2019-05-06T22:56:46.433Z,76.80
2019-05-06T22:59:17.085Z,76.80
2019-05-06T23:02:05.725Z,76.80
2019-05-06T23:04:36.262Z,77.30
2019-05-06T23:07:16.395Z,77.10
2019-05-06T23:09:47.047Z,77.40
2019-05-06T23:12:16.679Z,77.60
2019-05-06T23:14:47.484Z,77.90
2019-05-06T23:17:17.087Z,78.50
2019-05-06T23:19:46.675Z,78.20
2019-05-06T23:22:16.369Z,78.60
2019-05-06T23:24:46.012Z,78.80
2019-05-06T23:27:15.658Z,79.00
2019-05-06T23:29:45.433Z,79.20
2019-05-06T23:32:15.246Z,79.40
2019-05-06T23:34:44.958Z,79.80
2019-05-06T23:37:23.455Z,80.00
2019-05-06T23:40:47.051Z,80.10
2019-05-06T23:43:53.377Z,80.60
2019-05-06T23:46:59.680Z,80.60
2019-05-06T23:50:04.995Z,81.20
2019-05-06T23:53:12.228Z,81.20
2019-05-06T23:56:16.408Z,81.50
2019-05-06T23:58:46.175Z,82.00
